Time;durP1;ratioP1;P1;durP2;ratioP2;P2;SDS_P1;SDS_P2;PMS_P1;PMS_P2;Temp;Humidity;BMP_temperature;BMP_pressure;BME280_temperature;BME280_humidity;BME280_pressure;Samples;Min_cycle;Max_cycle;Signal;HPM_P1;HPM_P2
2021/11/06 00:01:50;;;;;;;;;;;22.80;46.70;;;;;;1466482;78;739;-72
2021/11/06 00:03:52;;;;;;;;;;;22.70;46.60;;;;;;1482783;78;680;-71
2021/11/06 00:05:53;;;;;;;;;;;22.70;46.60;;;;;;1482961;78;1949;-71
2021/11/06 00:07:56;;;;;;;;;;;22.70;46.60;;;;;;1477892;78;1174;-71
2021/11/06 00:09:58;;;;;;;;;;;22.70;46.60;;;;;;1487083;78;749;-71
2021/11/06 00:11:59;;;;;;;;;;;22.70;46.60;;;;;;1474031;78;706;-72
2021/11/06 00:14:01;;;;;;;;;;;22.70;46.60;;;;;;1477775;78;783;-72
2021/11/06 00:16:03;;;;;;;;;;;22.70;46.60;;;;;;1471880;78;796;-74
2021/11/06 00:18:05;;;;;;;;;;;22.70;46.60;;;;;;1481866;78;1198;-72
2021/11/06 00:20:08;;;;;;;;;;;22.70;46.70;;;;;;1483027;78;660;-71
2021/11/06 00:22:10;;;;;;;;;;;22.60;46.70;;;;;;1477591;78;737;-72
2021/11/06 00:24:12;;;;;;;;;;;22.60;46.70;;;;;;1481534;78;754;-74
2021/11/06 00:26:13;;;;;;;;;;;22.70;46.80;;;;;;1477129;78;1932;-71
2021/11/06 00:28:15;;;;;;;;;;;22.60;46.80;;;;;;1480622;77;1133;-71
2021/11/06 00:30:17;;;;;;;;;;;22.60;46.80;;;;;;1484020;78;694;-71
2021/11/06 00:32:19;;;;;;;;;;;22.70;46.80;;;;;;1479043;78;797;-70
2021/11/06 00:34:21;;;;;;;;;;;22.70;46.80;;;;;;1482797;78;831;-71
2021/11/06 00:36:24;;;;;;;;;;;22.70;46.80;;;;;;1486635;78;775;-70
2021/11/06 00:38:26;;;;;;;;;;;22.70;46.90;;;;;;1482220;78;1221;-70
2021/11/06 00:40:28;;;;;;;;;;;22.70;46.90;;;;;;1480792;78;783;-71
2021/11/06 00:42:30;;;;;;;;;;;22.70;46.80;;;;;;1481915;78;716;-69
2021/11/06 00:44:31;;;;;;;;;;;22.80;46.80;;;;;;1478979;78;694;-70
2021/11/06 00:46:33;;;;;;;;;;;22.70;46.80;;;;;;1480727;78;1947;-70
2021/11/06 00:48:35;;;;;;;;;;;22.70;46.80;;;;;;1475298;78;1135;-72
2021/11/06 00:50:37;;;;;;;;;;;22.80;46.90;;;;;;1483170;78;729;-73
2021/11/06 00:52:39;;;;;;;;;;;22.70;47.00;;;;;;1486936;77;792;-70
2021/11/06 00:54:41;;;;;;;;;;;22.80;46.90;;;;;;1492144;78;788;-71
2021/11/06 00:56:43;;;;;;;;;;;22.70;46.90;;;;;;1487403;78;745;-70
2021/11/06 00:58:45;;;;;;;;;;;22.70;47.00;;;;;;1486460;78;1174;-70
2021/11/06 01:00:46;;;;;;;;;;;22.70;46.90;;;;;;1478582;78;875;-71
2021/11/06 01:02:49;;;;;;;;;;;22.80;46.80;;;;;;1479515;78;725;-71
2021/11/06 01:04:51;;;;;;;;;;;22.80;46.80;;;;;;1496079;78;676;-71
2021/11/06 01:06:52;;;;;;;;;;;22.80;46.80;;;;;;1484470;78;1938;-73
2021/11/06 01:08:54;;;;;;;;;;;22.80;46.80;;;;;;1492265;78;1135;-73
2021/11/06 01:10:56;;;;;;;;;;;22.80;46.80;;;;;;1476134;78;750;-73
2021/11/06 01:12:58;;;;;;;;;;;22.80;46.80;;;;;;1483374;78;791;-71
2021/11/06 01:15:00;;;;;;;;;;;22.70;46.80;;;;;;1482488;78;796;-70
2021/11/06 01:17:02;;;;;;;;;;;22.70;46.80;;;;;;1481870;78;791;-71
2021/11/06 01:19:04;;;;;;;;;;;22.80;46.80;;;;;;1484345;78;1129;-71
2021/11/06 01:21:06;;;;;;;;;;;22.70;46.80;;;;;;1480574;78;781;-72
2021/11/06 01:23:08;;;;;;;;;;;22.70;46.80;;;;;;1482009;78;582;-71
2021/11/06 01:25:10;;;;;;;;;;;22.70;46.80;;;;;;1478262;78;726;-70
2021/11/06 01:27:12;;;;;;;;;;;22.70;46.80;;;;;;1480165;78;1946;-70
2021/11/06 01:29:14;;;;;;;;;;;22.70;46.80;;;;;;1498760;77;1131;-71
2021/11/06 01:31:16;;;;;;;;;;;22.70;46.80;;;;;;1486506;78;807;-76
2021/11/06 01:33:18;;;;;;;;;;;22.70;46.70;;;;;;1494436;78;811;-70
2021/11/06 01:35:19;;;;;;;;;;;22.70;46.80;;;;;;1495073;78;759;-71
2021/11/06 01:37:21;;;;;;;;;;;22.70;46.80;;;;;;1494736;78;729;-71
2021/11/06 01:39:23;;;;;;;;;;;22.70;46.80;;;;;;1504653;77;1087;-71
2021/11/06 01:41:25;;;;;;;;;;;22.80;46.80;;;;;;1501063;78;744;-71
2021/11/06 01:43:27;;;;;;;;;;;22.80;46.70;;;;;;1502284;78;775;-71
2021/11/06 01:45:29;;;;;;;;;;;22.80;46.70;;;;;;1498209;78;1946;-71
2021/11/06 01:47:31;;;;;;;;;;;22.70;46.70;;;;;;1504182;78;745;-74
2021/11/06 01:49:33;;;;;;;;;;;22.70;46.60;;;;;;1494804;78;1073;-71
2021/11/06 01:51:34;;;;;;;;;;;22.80;46.60;;;;;;1507334;78;740;-71
2021/11/06 01:53:36;;;;;;;;;;;22.80;46.60;;;;;;1493273;78;799;-73
2021/11/06 01:55:39;;;;;;;;;;;22.80;46.60;;;;;;1503689;78;710;-70
2021/11/06 01:57:41;;;;;;;;;;;22.70;46.60;;;;;;1499662;78;1195;-70
2021/11/06 01:59:43;;;;;;;;;;;22.80;46.60;;;;;;1497113;78;794;-70
2021/11/06 02:01:46;;;;;;;;;;;22.80;46.60;;;;;;1498786;78;781;-76
2021/11/06 02:03:48;;;;;;;;;;;22.80;46.60;;;;;;1497579;78;717;-70
2021/11/06 02:05:50;;;;;;;;;;;22.80;46.60;;;;;;1505351;78;1937;-70
2021/11/06 02:07:52;;;;;;;;;;;22.70;46.70;;;;;;1489948;78;1140;-70
2021/11/06 02:09:54;;;;;;;;;;;22.60;46.60;;;;;;1506070;78;734;-71
2021/11/06 02:11:56;;;;;;;;;;;22.70;46.70;;;;;;1482909;78;802;-71
2021/11/06 02:13:58;;;;;;;;;;;22.70;46.60;;;;;;1502584;78;763;-70
2021/11/06 02:16:00;;;;;;;;;;;22.70;46.60;;;;;;1500985;78;725;-70
2021/11/06 02:18:02;;;;;;;;;;;22.60;46.60;;;;;;1499152;77;1130;-70
2021/11/06 02:20:04;;;;;;;;;;;22.70;46.60;;;;;;1498601;78;771;-71
2021/11/06 02:22:06;;;;;;;;;;;22.60;46.60;;;;;;1499225;78;710;-70
2021/11/06 02:24:08;;;;;;;;;;;22.60;46.60;;;;;;1497007;78;650;-70
2021/11/06 02:26:11;;;;;;;;;;;22.70;46.70;;;;;;1495208;78;1946;-70
2021/11/06 02:28:13;;;;;;;;;;;22.70;46.70;;;;;;1506933;73;224667;-66
2021/11/06 02:30:16;;;;;;;;;;;22.60;46.60;;;;;;1541436;75;698;-66
2021/11/06 02:32:18;;;;;;;;;;;22.60;46.60;;;;;;1535709;75;1169;-66
2021/11/06 02:34:20;;;;;;;;;;;22.60;46.60;;;;;;1523812;77;679;-66
2021/11/06 02:36:22;;;;;;;;;;;22.70;46.60;;;;;;1522493;77;735;-66
2021/11/06 02:38:23;;;;;;;;;;;22.70;46.60;;;;;;1533373;77;701;-66
2021/11/06 02:40:25;;;;;;;;;;;22.70;46.60;;;;;;1531367;77;684;-66
2021/11/06 02:42:27;;;;;;;;;;;22.80;46.50;;;;;;1530599;77;1158;-66
2021/11/06 02:44:29;;;;;;;;;;;22.90;46.50;;;;;;1532136;77;782;-66
2021/11/06 02:46:31;;;;;;;;;;;22.90;46.50;;;;;;1535358;77;1929;-66
2021/11/06 02:48:33;;;;;;;;;;;22.80;46.30;;;;;;1536169;77;673;-66
2021/11/06 02:50:35;;;;;;;;;;;22.80;46.30;;;;;;1534419;77;733;-66
2021/11/06 02:52:36;;;;;;;;;;;22.80;46.30;;;;;;1538008;76;1165;-66
2021/11/06 02:54:38;;;;;;;;;;;22.80;46.40;;;;;;1533573;77;714;-66
2021/11/06 02:56:40;;;;;;;;;;;22.90;46.50;;;;;;1539454;77;774;-66
2021/11/06 02:58:42;;;;;;;;;;;22.80;46.40;;;;;;1530229;77;776;-66
2021/11/06 03:00:44;;;;;;;;;;;22.70;46.50;;;;;;1534321;77;783;-66
2021/11/06 03:02:46;;;;;;;;;;;22.70;46.50;;;;;;1506479;77;1520;-66
2021/11/06 03:04:48;;;;;;;;;;;22.70;46.50;;;;;;1519942;77;778;-66
2021/11/06 03:06:49;;;;;;;;;;;22.70;46.60;;;;;;1528185;77;1927;-66
2021/11/06 03:08:51;;;;;;;;;;;22.70;46.60;;;;;;1517224;77;1020;-66
2021/11/06 03:10:53;;;;;;;;;;;22.70;46.60;;;;;;1511712;77;734;-66
2021/11/06 03:12:55;;;;;;;;;;;22.70;46.70;;;;;;1524987;76;1182;-66
2021/11/06 03:14:57;;;;;;;;;;;22.70;46.80;;;;;;1513172;77;994;-66
2021/11/06 03:16:59;;;;;;;;;;;22.70;46.80;;;;;;1522106;77;761;-67
2021/11/06 03:19:01;;;;;;;;;;;22.70;46.80;;;;;;1520040;77;718;-66
2021/11/06 03:21:03;;;;;;;;;;;22.70;46.80;;;;;;1515424;77;669;-65
2021/11/06 03:23:05;;;;;;;;;;;22.60;46.70;;;;;;1525050;76;1158;-65
2021/11/06 03:25:07;;;;;;;;;;;22.60;46.70;;;;;;1526010;77;711;-65
2021/11/06 03:27:09;;;;;;;;;;;22.60;46.60;;;;;;1521273;77;1909;-65
2021/11/06 03:29:11;;;;;;;;;;;22.60;46.60;;;;;;1524991;77;784;-66
2021/11/06 03:31:13;;;;;;;;;;;22.70;46.70;;;;;;1521757;77;689;-65
2021/11/06 03:33:15;;;;;;;;;;;22.70;46.70;;;;;;1533306;75;1491;-65
2021/11/06 03:35:17;;;;;;;;;;;22.70;46.70;;;;;;1525609;76;707;-65
2021/11/06 03:37:18;;;;;;;;;;;22.60;46.50;;;;;;1525545;77;728;-66
2021/11/06 03:39:20;;;;;;;;;;;22.70;46.60;;;;;;1537046;77;713;-65
2021/11/06 03:41:22;;;;;;;;;;;22.80;46.50;;;;;;1538287;77;756;-65
2021/11/06 03:43:24;;;;;;;;;;;22.80;46.50;;;;;;1523904;77;1137;-65
2021/11/06 03:45:45;;;;;;;;;;;22.90;46.50;;;;;;1534237;77;729;-66
2021/11/06 03:47:47;;;;;;;;;;;22.90;46.30;;;;;;1519545;76;1922;-66
2021/11/06 03:49:49;;;;;;;;;;;23.00;46.10;;;;;;1523760;76;720;-66
2021/11/06 03:51:51;;;;;;;;;;;23.10;46.10;;;;;;1516640;76;694;-66
2021/11/06 03:53:53;;;;;;;;;;;23.10;46.00;;;;;;1526085;76;573;-66
2021/11/06 03:55:55;;;;;;;;;;;23.20;45.80;;;;;;1536133;76;1215;-65
2021/11/06 03:57:57;;;;;;;;;;;23.10;46.00;;;;;;1546346;75;806;-66
2021/11/06 03:59:58;;;;;;;;;;;23.10;46.20;;;;;;1546256;75;779;-66
2021/11/06 04:02:01;;;;;;;;;;;23.00;46.20;;;;;;1542357;76;719;-67
2021/11/06 04:04:04;;;;;;;;;;;23.00;46.10;;;;;;1537724;75;727;-67
2021/11/06 04:06:06;;;;;;;;;;;23.00;46.10;;;;;;1535966;76;1115;-67
2021/11/06 04:08:08;;;;;;;;;;;23.10;46.50;;;;;;1537133;75;1928;-66
2021/11/06 04:10:11;;;;;;;;;;;23.00;46.40;;;;;;1538006;75;774;-66
2021/11/06 04:12:12;;;;;;;;;;;23.00;46.50;;;;;;1535507;75;769;-66
2021/11/06 04:14:14;;;;;;;;;;;22.90;46.60;;;;;;1541781;76;722;-66
2021/11/06 04:16:16;;;;;;;;;;;22.90;46.50;;;;;;1548506;76;1176;-66
2021/11/06 04:18:18;;;;;;;;;;;23.00;46.50;;;;;;1537646;75;734;-67
2021/11/06 04:20:20;;;;;;;;;;;23.00;46.30;;;;;;1551705;76;734;-67
2021/11/06 04:22:22;;;;;;;;;;;23.00;46.20;;;;;;1541167;75;706;-66
2021/11/06 04:24:24;;;;;;;;;;;23.00;46.10;;;;;;1544269;76;730;-65
2021/11/06 04:26:26;;;;;;;;;;;23.00;46.30;;;;;;1541742;75;1938;-67
2021/11/06 04:28:28;;;;;;;;;;;23.00;46.40;;;;;;1539102;75;729;-66
2021/11/06 04:30:30;;;;;;;;;;;22.90;46.40;;;;;;1546045;75;787;-67
2021/11/06 04:32:31;;;;;;;;;;;22.90;46.50;;;;;;1546413;75;765;-66
2021/11/06 04:34:33;;;;;;;;;;;22.90;46.50;;;;;;1550599;75;1138;-67
2021/11/06 04:36:35;;;;;;;;;;;23.10;46.40;;;;;;1547339;75;699;-66
2021/11/06 04:38:37;;;;;;;;;;;23.00;46.10;;;;;;1548063;75;741;-69
2021/11/06 04:40:39;;;;;;;;;;;23.00;46.00;;;;;;1535706;76;770;-74
2021/11/06 04:42:41;;;;;;;;;;;23.20;45.90;;;;;;1547178;75;723;-67
2021/11/06 04:44:43;;;;;;;;;;;23.20;45.80;;;;;;1553356;75;1154;-67
2021/11/06 04:46:45;;;;;;;;;;;23.20;45.70;;;;;;1548765;76;1965;-67
2021/11/06 04:48:47;;;;;;;;;;;23.30;45.60;;;;;;1536997;76;758;-68
2021/11/06 04:50:48;;;;;;;;;;;23.20;45.60;;;;;;1539852;76;667;-67
2021/11/06 04:52:50;;;;;;;;;;;23.30;45.70;;;;;;1537113;76;775;-67
2021/11/06 04:54:53;;;;;;;;;;;23.20;45.60;;;;;;1539820;76;1151;-67
2021/11/06 04:56:55;;;;;;;;;;;23.30;45.60;;;;;;1540995;76;850;-67
2021/11/06 04:58:56;;;;;;;;;;;23.30;45.50;;;;;;1540796;76;732;-67
2021/11/06 05:00:58;;;;;;;;;;;23.30;45.50;;;;;;1540818;76;678;-67
2021/11/06 05:03:00;;;;;;;;;;;23.30;45.40;;;;;;1536439;76;753;-67
2021/11/06 05:05:02;;;;;;;;;;;23.30;45.40;;;;;;1536093;76;1157;-66
2021/11/06 05:07:05;;;;;;;;;;;23.40;45.30;;;;;;1540570;76;1924;-66
2021/11/06 05:09:07;;;;;;;;;;;23.50;45.40;;;;;;1539628;76;1439;-66
2021/11/06 05:11:09;;;;;;;;;;;23.30;45.30;;;;;;1541203;76;761;-67
2021/11/06 05:13:11;;;;;;;;;;;23.30;45.40;;;;;;1537114;75;759;-67
2021/11/06 05:15:13;;;;;;;;;;;23.40;45.40;;;;;;1541394;75;1167;-67
2021/11/06 05:17:16;;;;;;;;;;;23.40;45.40;;;;;;1532984;75;737;-66
2021/11/06 05:19:18;;;;;;;;;;;23.30;45.50;;;;;;1531093;75;705;-66
2021/11/06 05:21:21;;;;;;;;;;;23.40;45.50;;;;;;1540176;76;735;-67
2021/11/06 05:23:23;;;;;;;;;;;23.40;45.40;;;;;;1540444;76;753;-67
2021/11/06 05:25:24;;;;;;;;;;;23.50;45.50;;;;;;1532397;76;1148;-67
2021/11/06 05:27:26;;;;;;;;;;;23.50;45.50;;;;;;1539086;75;1933;-66
2021/11/06 05:29:28;;;;;;;;;;;23.40;45.30;;;;;;1532182;76;706;-66
2021/11/06 05:31:30;;;;;;;;;;;23.40;45.30;;;;;;1536456;76;739;-67
2021/11/06 05:33:32;;;;;;;;;;;23.50;45.50;;;;;;1539139;76;696;-66
2021/11/06 05:35:35;;;;;;;;;;;23.50;45.50;;;;;;1536177;76;1229;-67
2021/11/06 05:37:37;;;;;;;;;;;23.40;45.50;;;;;;1540803;76;700;-67
2021/11/06 05:39:39;;;;;;;;;;;23.30;45.50;;;;;;1536039;76;661;-67
2021/11/06 05:41:41;;;;;;;;;;;23.30;45.50;;;;;;1535693;76;732;-67
2021/11/06 05:43:43;;;;;;;;;;;23.40;45.40;;;;;;1532387;77;692;-66
2021/11/06 05:45:45;;;;;;;;;;;23.30;45.40;;;;;;1532083;76;1143;-67
2021/11/06 05:47:47;;;;;;;;;;;23.30;45.50;;;;;;1541955;75;1936;-67
2021/11/06 05:49:48;;;;;;;;;;;23.30;45.50;;;;;;1541653;75;767;-66
2021/11/06 05:51:50;;;;;;;;;;;23.40;45.50;;;;;;1538991;76;694;-66
2021/11/06 05:53:52;;;;;;;;;;;23.30;45.50;;;;;;1538671;75;781;-67
2021/11/06 05:55:54;;;;;;;;;;;23.30;45.50;;;;;;1537294;75;1104;-67
2021/11/06 05:57:56;;;;;;;;;;;23.40;45.40;;;;;;1541984;75;724;-66
2021/11/06 05:59:58;;;;;;;;;;;23.40;45.50;;;;;;1537272;76;748;-66
2021/11/06 06:02:00;;;;;;;;;;;23.40;45.50;;;;;;1541115;75;763;-66
2021/11/06 06:04:02;;;;;;;;;;;23.30;45.50;;;;;;1536817;75;655;-67
2021/11/06 06:06:04;;;;;;;;;;;23.40;45.50;;;;;;1539961;75;1130;-66
2021/11/06 06:08:06;;;;;;;;;;;23.40;45.60;;;;;;1534523;75;1925;-66
2021/11/06 06:10:09;;;;;;;;;;;23.40;45.60;;;;;;1532449;76;700;-67
2021/11/06 06:12:11;;;;;;;;;;;23.30;45.60;;;;;;1540830;75;647;-66
2021/11/06 06:14:12;;;;;;;;;;;23.40;45.60;;;;;;1537464;76;830;-67
2021/11/06 06:16:14;;;;;;;;;;;23.40;45.70;;;;;;1540061;75;1505;-67
2021/11/06 06:18:16;;;;;;;;;;;23.40;45.60;;;;;;1542051;75;696;-66
2021/11/06 06:20:18;;;;;;;;;;;23.50;45.70;;;;;;1540458;76;696;-67
2021/11/06 06:22:22;;;;;;;;;;;23.40;45.50;;;;;;1527523;75;786;-67
2021/11/06 06:24:24;;;;;;;;;;;23.50;45.60;;;;;;1535762;75;1454;-67
2021/11/06 06:26:25;;;;;;;;;;;23.50;45.50;;;;;;1542429;75;1147;-67
2021/11/06 06:28:27;;;;;;;;;;;23.50;45.50;;;;;;1536610;75;1937;-67
2021/11/06 06:30:29;;;;;;;;;;;23.50;45.50;;;;;;1529742;75;804;-66
2021/11/06 06:32:31;;;;;;;;;;;23.50;45.60;;;;;;1531758;75;763;-66
2021/11/06 06:34:43;;;;;;;;;;;23.40;45.50;;;;;;1535824;75;1174;-67
2021/11/06 06:36:52;;;;;;;;;;;23.40;45.50;;;;;;1537242;76;1555;-67
2021/11/06 06:38:50;;;;;;;;;;;23.30;45.80;;;;;;1537156;77;1584;-67
2021/11/06 06:40:52;;;;;;;;;;;23.30;45.80;;;;;;1539925;76;704;-67
2021/11/06 06:42:54;;;;;;;;;;;23.40;45.60;;;;;;1540184;76;740;-66
2021/11/06 06:44:56;;;;;;;;;;;23.40;45.50;;;;;;1540828;77;1138;-66
2021/11/06 06:46:58;;;;;;;;;;;23.40;45.40;;;;;;1542262;77;584;-67
2021/11/06 06:49:00;;;;;;;;;;;23.40;45.50;;;;;;1541055;76;1947;-67
2021/11/06 06:51:02;;;;;;;;;;;23.40;45.70;;;;;;1541677;77;793;-66
2021/11/06 06:53:03;;;;;;;;;;;23.50;45.70;;;;;;1540587;76;738;-67
2021/11/06 06:55:05;;;;;;;;;;;23.40;45.60;;;;;;1540492;76;1118;-67
2021/11/06 06:57:07;;;;;;;;;;;23.40;45.70;;;;;;1540621;77;721;-67
2021/11/06 06:59:09;;;;;;;;;;;23.50;45.80;;;;;;1527909;76;774;-66
2021/11/06 07:01:11;;;;;;;;;;;23.50;45.70;;;;;;1540244;76;769;-67
2021/11/06 07:03:13;;;;;;;;;;;23.50;45.70;;;;;;1539576;76;796;-67
2021/11/06 07:05:15;;;;;;;;;;;23.40;45.70;;;;;;1539807;76;1131;-66
2021/11/06 07:07:17;;;;;;;;;;;23.40;45.70;;;;;;1540595;77;684;-66
2021/11/06 07:09:19;;;;;;;;;;;23.40;45.80;;;;;;1540320;77;1937;-66
2021/11/06 07:11:21;;;;;;;;;;;23.30;46.30;;;;;;1542053;77;717;-70
2021/11/06 07:13:24;;;;;;;;;;;23.30;46.40;;;;;;1540576;76;735;-68
2021/11/06 07:15:26;;;;;;;;;;;23.30;46.30;;;;;;1541192;76;1187;-68
2021/11/06 07:17:27;;;;;;;;;;;23.30;46.00;;;;;;1540097;76;689;-68
2021/11/06 07:19:29;;;;;;;;;;;23.40;46.10;;;;;;1538703;75;722;-68
2021/11/06 07:21:31;;;;;;;;;;;23.30;46.10;;;;;;1542300;75;772;-67
2021/11/06 07:23:33;;;;;;;;;;;23.30;46.20;;;;;;1532062;75;716;-66
2021/11/06 07:25:35;;;;;;;;;;;23.40;46.30;;;;;;1539042;75;1135;-68
2021/11/06 07:27:37;;;;;;;;;;;23.40;46.20;;;;;;1536846;75;1937;-67
2021/11/06 07:29:39;;;;;;;;;;;23.30;46.30;;;;;;1537868;75;701;-68
2021/11/06 07:31:41;;;;;;;;;;;23.40;46.40;;;;;;1532992;75;786;-68
2021/11/06 07:33:43;;;;;;;;;;;23.40;46.30;;;;;;1536352;76;767;-68
2021/11/06 07:35:44;;;;;;;;;;;23.40;46.30;;;;;;1535215;75;1117;-68
2021/11/06 07:37:47;;;;;;;;;;;23.40;46.30;;;;;;1539269;76;697;-68
2021/11/06 07:39:49;;;;;;;;;;;23.50;46.30;;;;;;1536919;75;733;-68
2021/11/06 07:41:51;;;;;;;;;;;23.30;46.30;;;;;;1531322;75;637;-69
2021/11/06 07:43:54;;;;;;;;;;;23.30;46.40;;;;;;1529612;75;730;-69
2021/11/06 07:45:56;;;;;;;;;;;23.40;46.50;;;;;;1530024;76;1121;-69
2021/11/06 07:47:57;;;;;;;;;;;23.40;46.80;;;;;;1532940;76;1939;-69
2021/11/06 07:49:59;;;;;;;;;;;23.30;46.90;;;;;;1535688;76;681;-70
2021/11/06 07:52:01;;;;;;;;;;;23.30;47.00;;;;;;1539465;76;719;-69
2021/11/06 07:54:03;;;;;;;;;;;23.30;47.10;;;;;;1537799;76;798;-69
2021/11/06 07:56:05;;;;;;;;;;;23.40;47.40;;;;;;1530321;77;1143;-71
2021/11/06 07:58:09;;;;;;;;;;;23.30;47.20;;;;;;1539190;76;756;-70
2021/11/06 08:00:12;;;;;;;;;;;23.40;46.90;;;;;;1541696;76;734;-71
2021/11/06 08:02:14;;;;;;;;;;;23.30;46.90;;;;;;1539109;76;773;-71
2021/11/06 08:04:15;;;;;;;;;;;23.30;46.80;;;;;;1541974;76;793;-69
2021/11/06 08:06:18;;;;;;;;;;;23.30;46.60;;;;;;1540333;77;1093;-70
2021/11/06 08:08:20;;;;;;;;;;;23.20;46.50;;;;;;1539386;77;1924;-69
2021/11/06 08:10:22;;;;;;;;;;;23.20;46.50;;;;;;1542206;77;704;-71
2021/11/06 08:12:23;;;;;;;;;;;23.20;46.50;;;;;;1539059;77;785;-70
2021/11/06 08:14:25;;;;;;;;;;;23.20;46.50;;;;;;1539449;76;765;-69
2021/11/06 08:16:27;;;;;;;;;;;23.20;46.30;;;;;;1539815;77;1115;-69
2021/11/06 08:18:29;;;;;;;;;;;23.20;46.50;;;;;;1542895;76;680;-69
2021/11/06 08:20:32;;;;;;;;;;;23.20;46.50;;;;;;1539826;76;752;-69
2021/11/06 08:22:34;;;;;;;;;;;23.20;46.60;;;;;;1548374;76;726;-71
2021/11/06 08:24:36;;;;;;;;;;;23.30;46.50;;;;;;1539940;76;1159;-69
2021/11/06 08:26:38;;;;;;;;;;;23.20;46.50;;;;;;1537338;77;714;-69
2021/11/06 08:28:40;;;;;;;;;;;23.20;46.60;;;;;;1539053;77;1936;-69
2021/11/06 08:30:42;;;;;;;;;;;23.20;46.60;;;;;;1539632;76;704;-69
2021/11/06 08:32:44;;;;;;;;;;;23.20;46.80;;;;;;1538829;77;778;-69
2021/11/06 08:34:45;;;;;;;;;;;23.30;47.10;;;;;;1540015;76;1226;-71
2021/11/06 08:36:47;;;;;;;;;;;23.30;47.00;;;;;;1539131;76;701;-71
2021/11/06 08:38:49;;;;;;;;;;;23.30;47.00;;;;;;1522976;76;707;-70
2021/11/06 08:40:51;;;;;;;;;;;23.30;47.30;;;;;;1520951;76;713;-69
2021/11/06 08:42:53;;;;;;;;;;;23.30;47.50;;;;;;1522750;76;710;-69
2021/11/06 08:44:55;;;;;;;;;;;23.20;47.80;;;;;;1521297;76;1168;-69
2021/11/06 08:46:57;;;;;;;;;;;23.20;48.00;;;;;;1522843;76;715;-69
2021/11/06 08:48:59;;;;;;;;;;;23.30;48.00;;;;;;1503997;77;1939;-69
2021/11/06 08:51:01;;;;;;;;;;;23.30;48.20;;;;;;1485982;78;619;-66
2021/11/06 08:53:03;;;;;;;;;;;23.20;47.80;;;;;;1484266;78;761;-67
2021/11/06 08:55:05;;;;;;;;;;;23.30;47.60;;;;;;1478042;79;1178;-67
2021/11/06 08:57:07;;;;;;;;;;;23.30;47.60;;;;;;1479981;79;709;-67
2021/11/06 08:59:09;;;;;;;;;;;23.20;47.50;;;;;;1487351;79;700;-66
2021/11/06 09:01:12;;;;;;;;;;;23.20;47.50;;;;;;1465151;79;797;-66
2021/11/06 09:03:16;;;;;;;;;;;23.10;47.50;;;;;;1495477;78;785;-67
2021/11/06 09:05:18;;;;;;;;;;;23.10;47.40;;;;;;1503247;77;1489;-66
2021/11/06 09:07:20;;;;;;;;;;;23.10;47.40;;;;;;1504564;78;961;-68
2021/11/06 09:09:21;;;;;;;;;;;23.10;47.40;;;;;;1502460;77;1945;-67
2021/11/06 09:11:23;;;;;;;;;;;23.10;47.40;;;;;;1482317;79;1112;-68
2021/11/06 09:13:25;;;;;;;;;;;23.10;47.50;;;;;;1503633;78;709;-68
2021/11/06 09:15:27;;;;;;;;;;;23.10;47.60;;;;;;1498414;78;1292;-68
2021/11/06 09:17:29;;;;;;;;;;;23.10;47.70;;;;;;1497057;79;710;-68
2021/11/06 09:19:31;;;;;;;;;;;23.10;47.80;;;;;;1499117;79;810;-68
2021/11/06 09:21:33;;;;;;;;;;;23.10;47.80;;;;;;1509330;77;664;-68
2021/11/06 09:23:35;;;;;;;;;;;23.10;48.00;;;;;;1499944;77;723;-68
2021/11/06 09:25:37;;;;;;;;;;;23.10;48.10;;;;;;1482209;80;1150;-68
2021/11/06 09:27:39;;;;;;;;;;;23.10;48.10;;;;;;1498647;77;739;-68
2021/11/06 09:29:41;;;;;;;;;;;23.10;48.30;;;;;;1506460;77;1945;-68
2021/11/06 09:31:43;;;;;;;;;;;23.10;48.30;;;;;;1505390;78;715;-68
2021/11/06 09:33:45;;;;;;;;;;;23.00;48.30;;;;;;1501944;79;777;-68
2021/11/06 09:35:47;;;;;;;;;;;23.00;48.30;;;;;;1505721;78;1129;-68
2021/11/06 09:37:49;;;;;;;;;;;23.10;48.40;;;;;;1501303;77;782;-69
2021/11/06 09:39:53;;;;;;;;;;;23.00;48.40;;;;;;1508722;78;701;-68
2021/11/06 09:41:55;;;;;;;;;;;23.00;48.40;;;;;;1498899;78;1619;-68
2021/11/06 09:43:57;;;;;;;;;;;23.00;48.40;;;;;;1504811;78;708;-68
2021/11/06 09:45:59;;;;;;;;;;;23.00;48.40;;;;;;1502902;74;219852;-51
2021/11/06 09:48:01;;;;;;;;;;;23.00;48.40;;;;;;1540480;76;716;-52
2021/11/06 09:50:04;;;;;;;;;;;23.10;48.50;;;;;;1536768;76;1980;-51
2021/11/06 09:52:06;;;;;;;;;;;23.00;48.40;;;;;;1545769;76;673;-54
2021/11/06 09:54:08;;;;;;;;;;;23.00;48.40;;;;;;1540870;75;743;-50
2021/11/06 09:56:10;;;;;;;;;;;23.00;48.40;;;;;;1548233;74;1187;-53
2021/11/06 09:58:12;;;;;;;;;;;23.00;48.40;;;;;;1547559;76;732;-51
2021/11/06 10:00:14;;;;;;;;;;;23.00;48.40;;;;;;1548097;75;742;-51
2021/11/06 10:02:16;;;;;;;;;;;23.10;48.50;;;;;;1541776;76;742;-57
2021/11/06 10:04:18;;;;;;;;;;;23.10;48.40;;;;;;1577495;74;650;-51
2021/11/06 10:06:23;;;;;;;;;;;23.10;48.40;;;;;;1573814;74;1121;-52
2021/11/06 10:08:35;;;;;;;;;;;23.10;48.30;;;;;;1573825;74;723;-53
2021/11/06 10:10:33;;;;;;;;;;;23.10;48.30;;;;;;1583351;74;1517;-52
2021/11/06 10:12:48;;;;;;;;;;;23.10;48.40;;;;;;1555006;75;1198;-55
2021/11/06 10:14:52;;;;;;;;;;;23.00;48.20;;;;;;1563617;74;1194;-51
2021/11/06 10:16:55;;;;;;;;;;;23.10;48.40;;;;;;1566353;74;923;-53
2021/11/06 10:19:05;;;;;;;;;;;23.10;48.40;;;;;;1568189;74;669;-55
2021/11/06 10:21:07;;;;;;;;;;;23.10;48.40;;;;;;1564211;74;1007;-51
2021/11/06 10:23:09;;;;;;;;;;;23.10;48.30;;;;;;1558774;74;725;-52
2021/11/06 10:25:11;;;;;;;;;;;23.10;48.30;;;;;;1566695;74;1127;-53
2021/11/06 10:27:15;;;;;;;;;;;23.10;48.20;;;;;;1570305;74;662;-51
2021/11/06 10:29:17;;;;;;;;;;;23.20;48.10;;;;;;1565249;74;1926;-54
2021/11/06 10:31:19;;;;;;;;;;;23.20;48.00;;;;;;1573063;74;806;-50
2021/11/06 10:33:22;;;;;;;;;;;23.30;47.90;;;;;;1563514;74;711;-52
2021/11/06 10:35:25;;;;;;;;;;;23.30;47.70;;;;;;1565412;74;1125;-53
2021/11/06 10:37:27;;;;;;;;;;;23.40;47.60;;;;;;1570112;74;679;-53
2021/11/06 10:39:28;;;;;;;;;;;23.40;47.50;;;;;;1565170;74;780;-54
2021/11/06 10:41:31;;;;;;;;;;;23.40;47.40;;;;;;1569883;74;712;-52
2021/11/06 10:43:35;;;;;;;;;;;23.40;47.30;;;;;;1564384;74;662;-53
2021/11/06 10:45:38;;;;;;;;;;;23.50;47.30;;;;;;1565565;74;1246;-52
2021/11/06 10:47:50;;;;;;;;;;;23.50;47.20;;;;;;1545676;75;1377;-52
2021/11/06 10:49:52;;;;;;;;;;;23.50;47.20;;;;;;1550248;75;1941;-52
2021/11/06 10:52:01;;;;;;;;;;;23.50;47.10;;;;;;1566664;74;659;-51
2021/11/06 10:54:04;;;;;;;;;;;23.50;47.10;;;;;;1564187;74;753;-49
2021/11/06 10:56:16;;;;;;;;;;;23.50;47.00;;;;;;1569850;74;1134;-53
2021/11/06 10:58:20;;;;;;;;;;;23.50;46.80;;;;;;1576550;74;770;-53
2021/11/06 11:00:22;;;;;;;;;;;23.50;46.70;;;;;;1572692;74;1659;-52
2021/11/06 11:02:24;;;;;;;;;;;23.50;46.80;;;;;;1574818;74;789;-51
2021/11/06 11:04:26;;;;;;;;;;;23.60;46.80;;;;;;1569738;74;744;-51
2021/11/06 11:06:38;;;;;;;;;;;23.60;46.60;;;;;;1576416;74;1117;-53
2021/11/06 11:08:31;;;;;;;;;;;23.50;46.60;;;;;;1566784;74;1382;-52
2021/11/06 11:10:34;;;;;;;;;;;23.60;46.60;;;;;;1573144;74;2151;-50
2021/11/06 11:12:36;;;;;;;;;;;23.50;46.70;;;;;;1572335;74;1119;-51
2021/11/06 11:14:38;;;;;;;;;;;23.50;46.70;;;;;;1574517;74;811;-51
2021/11/06 11:16:41;;;;;;;;;;;23.50;46.60;;;;;;1565761;74;1098;-51
2021/11/06 11:18:44;;;;;;;;;;;23.50;46.60;;;;;;1564177;74;1118;-53
2021/11/06 11:20:46;;;;;;;;;;;23.60;46.50;;;;;;1565158;74;710;-49
2021/11/06 11:22:48;;;;;;;;;;;23.60;46.30;;;;;;1565443;74;722;-52
2021/11/06 11:24:50;;;;;;;;;;;23.60;46.30;;;;;;1545273;75;1115;-52
2021/11/06 11:26:52;;;;;;;;;;;23.70;46.40;;;;;;1565406;74;714;-53
2021/11/06 11:28:54;;;;;;;;;;;23.60;46.20;;;;;;1563922;74;785;-52
2021/11/06 11:30:56;;;;;;;;;;;23.70;46.30;;;;;;1565381;74;1940;-52
2021/11/06 11:32:59;;;;;;;;;;;23.60;46.10;;;;;;1564416;74;801;-53
2021/11/06 11:35:01;;;;;;;;;;;23.60;46.10;;;;;;1565386;74;1138;-53
2021/11/06 11:37:03;;;;;;;;;;;23.60;46.30;;;;;;1565395;74;695;-52
2021/11/06 11:39:06;;;;;;;;;;;23.60;46.30;;;;;;1565298;74;680;-52
2021/11/06 11:41:13;;;;;;;;;;;23.50;46.40;;;;;;1562998;74;705;-53
2021/11/06 11:43:16;;;;;;;;;;;23.50;46.60;;;;;;1565599;74;703;-54
2021/11/06 11:45:19;;;;;;;;;;;23.60;46.50;;;;;;1564209;74;1871;-54
2021/11/06 11:47:34;;;;;;;;;;;23.50;46.60;;;;;;1564730;74;787;-55
2021/11/06 11:49:37;;;;;;;;;;;23.50;46.70;;;;;;1499668;75;1952;-53
2021/11/06 11:51:39;;;;;;;;;;;23.50;46.70;;;;;;1563153;74;642;-55
2021/11/06 11:53:41;;;;;;;;;;;23.50;46.50;;;;;;1563995;74;725;-54
2021/11/06 11:55:44;;;;;;;;;;;23.60;46.50;;;;;;1561992;74;1146;-53
2021/11/06 11:57:50;;;;;;;;;;;23.60;46.50;;;;;;1564821;74;680;-55
2021/11/06 11:59:52;;;;;;;;;;;23.60;46.40;;;;;;1565677;74;674;-52
2021/11/06 12:01:56;;;;;;;;;;;23.50;46.50;;;;;;1565339;74;770;-53
2021/11/06 12:03:58;;;;;;;;;;;23.50;46.70;;;;;;1558696;74;1645;-53
2021/11/06 12:06:01;;;;;;;;;;;23.60;46.70;;;;;;1565779;74;1169;-53
2021/11/06 12:08:15;;;;;;;;;;;23.50;46.70;;;;;;1568485;74;732;-52
2021/11/06 12:10:18;;;;;;;;;;;23.50;46.80;;;;;;1561127;74;1914;-54